sensor_id;sensor_type;location;lat;lon;timestamp;pressure;altitude;pressure_sealevel;temperature;humidity
35878;BME280;21982;49.804;24.072;2023-07-24T00:01:41;96956.03;;;18.38;60.26
35878;BME280;21982;49.804;24.072;2023-07-24T00:04:07;96912.88;;;18.18;59.88
35878;BME280;21982;49.804;24.072;2023-07-24T00:06:32;96976.19;;;18.57;60.03
35878;BME280;21982;49.804;24.072;2023-07-24T00:08:58;96970.81;;;18.57;60.35
35878;BME280;21982;49.804;24.072;2023-07-24T00:11:23;96988.63;;;18.63;60.32
35878;BME280;21982;49.804;24.072;2023-07-24T00:13:48;96970.25;;;18.55;60.10
35878;BME280;21982;49.804;24.072;2023-07-24T00:16:14;96910.13;;;18.13;60.27
35878;BME280;21982;49.804;24.072;2023-07-24T00:18:39;96986.44;;;18.60;60.44
35878;BME280;21982;49.804;24.072;2023-07-24T00:21:06;96993.50;;;18.66;60.42
35878;BME280;21982;49.804;24.072;2023-07-24T00:23:32;96971.22;;;18.49;60.71
35878;BME280;21982;49.804;24.072;2023-07-24T00:25:57;96995.53;;;18.59;60.87
35878;BME280;21982;49.804;24.072;2023-07-24T00:28:22;96843.53;;;17.66;60.95
35878;BME280;21982;49.804;24.072;2023-07-24T00:30:48;96996.50;;;18.53;61.10
35878;BME280;21982;49.804;24.072;2023-07-24T00:33:13;96971.31;;;18.37;61.14
35878;BME280;21982;49.804;24.072;2023-07-24T00:35:38;96928.31;;;18.11;61.26
35878;BME280;21982;49.804;24.072;2023-07-24T00:38:05;96941.94;;;18.26;61.50
35878;BME280;21982;49.804;24.072;2023-07-24T00:40:30;96983.50;;;18.45;61.52
35878;BME280;21982;49.804;24.072;2023-07-24T00:42:56;96922.88;;;18.05;61.52
35878;BME280;21982;49.804;24.072;2023-07-24T00:45:22;96981.88;;;18.44;61.70
35878;BME280;21982;49.804;24.072;2023-07-24T00:47:51;96936.25;;;18.22;61.77
35878;BME280;21982;49.804;24.072;2023-07-24T00:50:17;96880.28;;;17.87;61.78
35878;BME280;21982;49.804;24.072;2023-07-24T00:52:42;96971.63;;;18.41;61.79
35878;BME280;21982;49.804;24.072;2023-07-24T00:55:09;96975.38;;;18.40;61.78
35878;BME280;21982;49.804;24.072;2023-07-24T00:57:36;96796.38;;;17.31;61.85
35878;BME280;21982;49.804;24.072;2023-07-24T01:00:02;96924.47;;;18.06;61.91
35878;BME280;21982;49.804;24.072;2023-07-24T01:02:29;96940.16;;;18.15;62.10
35878;BME280;21982;49.804;24.072;2023-07-24T01:04:55;96969.97;;;18.35;62.11
35878;BME280;21982;49.804;24.072;2023-07-24T01:07:20;96924.81;;;18.10;61.95
35878;BME280;21982;49.804;24.072;2023-07-24T01:09:46;96819.88;;;17.46;61.77
35878;BME280;21982;49.804;24.072;2023-07-24T01:14:56;96831.75;;;17.67;61.82
35878;BME280;21982;49.804;24.072;2023-07-24T01:17:24;96952.00;;;18.35;62.02
35878;BME280;21982;49.804;24.072;2023-07-24T01:19:55;96954.38;;;18.32;62.02
35878;BME280;21982;49.804;24.072;2023-07-24T01:22:42;96860.03;;;17.63;61.87
35878;BME280;21982;49.804;24.072;2023-07-24T01:25:28;96956.31;;;18.20;62.26
35878;BME280;21982;49.804;24.072;2023-07-24T01:27:57;96942.66;;;18.04;62.54
35878;BME280;21982;49.804;24.072;2023-07-24T01:30:23;96925.88;;;17.92;62.90
35878;BME280;21982;49.804;24.072;2023-07-24T01:32:49;96834.13;;;17.35;62.85
35878;BME280;21982;49.804;24.072;2023-07-24T01:35:15;96941.00;;;17.98;63.04
35878;BME280;21982;49.804;24.072;2023-07-24T01:37:43;96939.38;;;17.97;63.20
35878;BME280;21982;49.804;24.072;2023-07-24T01:40:09;96942.78;;;17.93;63.26
35878;BME280;21982;49.804;24.072;2023-07-24T01:42:36;96941.31;;;17.85;63.25
35878;BME280;21982;49.804;24.072;2023-07-24T01:45:03;96924.16;;;17.69;63.60
35878;BME280;21982;49.804;24.072;2023-07-24T01:47:28;96774.94;;;16.69;63.72
35878;BME280;21982;49.804;24.072;2023-07-24T01:49:55;96918.38;;;17.61;64.03
35878;BME280;21982;49.804;24.072;2023-07-24T01:52:21;96937.25;;;17.66;63.84
35878;BME280;21982;49.804;24.072;2023-07-24T01:54:46;96938.88;;;17.67;64.12
35878;BME280;21982;49.804;24.072;2023-07-24T01:57:12;96925.72;;;17.65;64.02
35878;BME280;21982;49.804;24.072;2023-07-24T01:59:37;96795.56;;;16.86;64.21
35878;BME280;21982;49.804;24.072;2023-07-24T02:02:03;96778.75;;;16.73;63.81
35878;BME280;21982;49.804;24.072;2023-07-24T02:04:28;96805.72;;;17.00;63.77
35878;BME280;21982;49.804;24.072;2023-07-24T02:06:53;96898.25;;;17.58;63.75
35878;BME280;21982;49.804;24.072;2023-07-24T02:09:19;96891.50;;;17.56;63.56
35878;BME280;21982;49.804;24.072;2023-07-24T02:11:45;96934.47;;;17.78;63.65
35878;BME280;21982;49.804;24.072;2023-07-24T02:14:12;96926.19;;;17.79;63.77
35878;BME280;21982;49.804;24.072;2023-07-24T02:16:38;96861.22;;;17.38;63.46
35878;BME280;21982;49.804;24.072;2023-07-24T02:19:03;96918.16;;;17.79;63.68
35878;BME280;21982;49.804;24.072;2023-07-24T02:21:28;96873.06;;;17.42;63.53
35878;BME280;21982;49.804;24.072;2023-07-24T02:23:54;96902.50;;;17.71;63.69
35878;BME280;21982;49.804;24.072;2023-07-24T02:26:20;96917.44;;;17.84;63.60
35878;BME280;21982;49.804;24.072;2023-07-24T02:28:45;96818.66;;;17.20;63.62
35878;BME280;21982;49.804;24.072;2023-07-24T02:31:11;96921.97;;;17.83;63.40
35878;BME280;21982;49.804;24.072;2023-07-24T02:33:36;96921.75;;;17.85;63.54
35878;BME280;21982;49.804;24.072;2023-07-24T02:36:02;96920.69;;;17.86;63.39
35878;BME280;21982;49.804;24.072;2023-07-24T02:38:28;96864.66;;;17.51;63.48
35878;BME280;21982;49.804;24.072;2023-07-24T02:40:54;96921.00;;;17.89;63.46
35878;BME280;21982;49.804;24.072;2023-07-24T02:43:20;96885.75;;;17.64;63.46
35878;BME280;21982;49.804;24.072;2023-07-24T02:45:45;96930.69;;;17.90;63.20
35878;BME280;21982;49.804;24.072;2023-07-24T02:48:10;96925.88;;;17.92;63.18
35878;BME280;21982;49.804;24.072;2023-07-24T02:50:36;96849.88;;;17.48;63.23
35878;BME280;21982;49.804;24.072;2023-07-24T02:53:01;96871.97;;;17.72;62.98
35878;BME280;21982;49.804;24.072;2023-07-24T02:55:27;96928.69;;;18.02;63.11
35878;BME280;21982;49.804;24.072;2023-07-24T02:57:53;96838.59;;;17.46;63.05
35878;BME280;21982;49.804;24.072;2023-07-24T03:00:19;96815.97;;;17.37;62.82
35878;BME280;21982;49.804;24.072;2023-07-24T03:02:45;96917.28;;;17.90;63.07
35878;BME280;21982;49.804;24.072;2023-07-24T03:05:10;96926.22;;;17.96;62.92
35878;BME280;21982;49.804;24.072;2023-07-24T03:07:36;96820.34;;;17.26;62.92
35878;BME280;21982;49.804;24.072;2023-07-24T03:10:02;96914.69;;;17.95;63.00
35878;BME280;21982;49.804;24.072;2023-07-24T03:12:28;96914.34;;;17.92;63.15
35878;BME280;21982;49.804;24.072;2023-07-24T03:14:54;96921.00;;;17.89;63.15
35878;BME280;21982;49.804;24.072;2023-07-24T03:17:19;96903.97;;;17.79;63.31
35878;BME280;21982;49.804;24.072;2023-07-24T03:19:44;96928.00;;;17.90;63.19
35878;BME280;21982;49.804;24.072;2023-07-24T03:22:10;96913.56;;;17.91;63.23
35878;BME280;21982;49.804;24.072;2023-07-24T03:24:35;96723.19;;;16.75;62.98
35878;BME280;21982;49.804;24.072;2023-07-24T03:27:02;96818.81;;;17.30;63.00
35878;BME280;21982;49.804;24.072;2023-07-24T03:29:30;96907.84;;;18.04;63.12
35878;BME280;21982;49.804;24.072;2023-07-24T03:31:56;96824.59;;;17.56;62.82
35878;BME280;21982;49.804;24.072;2023-07-24T03:34:21;96909.06;;;18.14;62.73
35878;BME280;21982;49.804;24.072;2023-07-24T03:36:47;96913.13;;;18.16;62.67
35878;BME280;21982;49.804;24.072;2023-07-24T03:39:12;96839.34;;;17.75;62.58
35878;BME280;21982;49.804;24.072;2023-07-24T03:41:38;96906.03;;;18.27;62.49
35878;BME280;21982;49.804;24.072;2023-07-24T03:44:04;96879.59;;;18.14;62.38
35878;BME280;21982;49.804;24.072;2023-07-24T03:46:31;96909.38;;;18.34;62.38
35878;BME280;21982;49.804;24.072;2023-07-24T03:48:56;96892.88;;;18.25;62.28
35878;BME280;21982;49.804;24.072;2023-07-24T03:51:22;96821.81;;;17.84;62.44
35878;BME280;21982;49.804;24.072;2023-07-24T03:53:47;96910.75;;;18.36;62.62
35878;BME280;21982;49.804;24.072;2023-07-24T03:56:12;96826.22;;;17.90;62.42
35878;BME280;21982;49.804;24.072;2023-07-24T03:58:38;96895.44;;;18.37;62.40
35878;BME280;21982;49.804;24.072;2023-07-24T04:01:07;96841.75;;;18.10;62.49
35878;BME280;21982;49.804;24.072;2023-07-24T04:03:33;96762.84;;;17.62;62.28
35878;BME280;21982;49.804;24.072;2023-07-24T04:05:59;96810.91;;;18.07;62.43
35878;BME280;21982;49.804;24.072;2023-07-24T04:08:25;96889.81;;;18.55;62.39
35878;BME280;21982;49.804;24.072;2023-07-24T04:10:50;96894.47;;;18.60;62.34
35878;BME280;21982;49.804;24.072;2023-07-24T04:13:17;96880.38;;;18.69;62.17
35878;BME280;21982;49.804;24.072;2023-07-24T04:15:42;96861.44;;;18.59;62.01
35878;BME280;21982;49.804;24.072;2023-07-24T04:18:09;96830.75;;;18.50;62.02
35878;BME280;21982;49.804;24.072;2023-07-24T04:20:34;96864.50;;;18.90;61.56
35878;BME280;21982;49.804;24.072;2023-07-24T04:23:00;96886.75;;;19.12;61.42
35878;BME280;21982;49.804;24.072;2023-07-24T04:25:25;96891.47;;;19.27;61.04
35878;BME280;21982;49.804;24.072;2023-07-24T04:27:51;96885.41;;;19.41;60.71
35878;BME280;21982;49.804;24.072;2023-07-24T04:30:16;96836.41;;;19.24;60.47
35878;BME280;21982;49.804;24.072;2023-07-24T04:32:42;96822.22;;;19.29;60.03
35878;BME280;21982;49.804;24.072;2023-07-24T04:35:08;96881.81;;;19.85;60.08
35878;BME280;21982;49.804;24.072;2023-07-24T04:37:34;96889.13;;;19.94;59.60
35878;BME280;21982;49.804;24.072;2023-07-24T04:40:02;96814.28;;;19.71;59.27
35878;BME280;21982;49.804;24.072;2023-07-24T04:42:28;96882.63;;;20.27;59.03
35878;BME280;21982;49.804;24.072;2023-07-24T04:44:53;96883.84;;;20.42;58.88
35878;BME280;21982;49.804;24.072;2023-07-24T04:47:19;96824.81;;;20.25;58.87
35878;BME280;21982;49.804;24.072;2023-07-24T04:49:46;96827.13;;;20.53;58.50
35878;BME280;21982;49.804;24.072;2023-07-24T04:52:12;96886.00;;;21.07;57.94
35878;BME280;21982;49.804;24.072;2023-07-24T04:54:37;96831.06;;;20.98;57.78
35878;BME280;21982;49.804;24.072;2023-07-24T04:57:03;96779.31;;;20.81;57.17
35878;BME280;21982;49.804;24.072;2023-07-24T04:59:30;96856.47;;;21.53;56.81
35878;BME280;21982;49.804;24.072;2023-07-24T05:01:56;96880.22;;;21.76;56.64
35878;BME280;21982;49.804;24.072;2023-07-24T05:04:25;96847.06;;;21.70;56.37
35878;BME280;21982;49.804;24.072;2023-07-24T05:06:59;96872.09;;;22.22;55.75
35878;BME280;21982;49.804;24.072;2023-07-24T05:09:25;96868.81;;;22.45;55.51
35878;BME280;21982;49.804;24.072;2023-07-24T05:11:50;96872.50;;;22.80;54.59
35878;BME280;21982;49.804;24.072;2023-07-24T05:14:15;96816.53;;;22.90;54.20
35878;BME280;21982;49.804;24.072;2023-07-24T05:16:45;96645.78;;;22.30;52.99
35878;BME280;21982;49.804;24.072;2023-07-24T05:19:11;96826.34;;;23.64;52.04
35878;BME280;21982;49.804;24.072;2023-07-24T05:24:12;96508.69;;;21.49;51.82
35878;BME280;21982;49.804;24.072;2023-07-24T05:26:38;96800.22;;;23.16;51.75
35878;BME280;21982;49.804;24.072;2023-07-24T05:29:03;96850.56;;;23.40;51.75
35878;BME280;21982;49.804;24.072;2023-07-24T05:31:29;96886.19;;;23.53;51.73
35878;BME280;21982;49.804;24.072;2023-07-24T05:33:54;96820.75;;;23.12;52.04
35878;BME280;21982;49.804;24.072;2023-07-24T05:36:20;96848.97;;;23.34;52.05
35878;BME280;21982;49.804;24.072;2023-07-24T05:38:45;96884.00;;;23.55;52.00
35878;BME280;21982;49.804;24.072;2023-07-24T05:41:11;96884.81;;;23.55;51.64
35878;BME280;21982;49.804;24.072;2023-07-24T05:43:36;96838.47;;;23.28;51.67
35878;BME280;21982;49.804;24.072;2023-07-24T05:46:02;96822.59;;;23.21;51.25
35878;BME280;21982;49.804;24.072;2023-07-24T05:48:28;96526.81;;;21.38;50.88
35878;BME280;21982;49.804;24.072;2023-07-24T05:50:55;96878.78;;;23.63;50.70
35878;BME280;21982;49.804;24.072;2023-07-24T05:53:20;96782.44;;;23.10;50.02
35878;BME280;21982;49.804;24.072;2023-07-24T05:55:46;96834.56;;;23.49;50.08
35878;BME280;21982;49.804;24.072;2023-07-24T05:58:14;96851.31;;;23.85;50.11
35878;BME280;21982;49.804;24.072;2023-07-24T06:00:39;96847.38;;;24.01;49.20
35878;BME280;21982;49.804;24.072;2023-07-24T06:03:05;96815.88;;;24.16;48.99
35878;BME280;21982;49.804;24.072;2023-07-24T06:05:30;96842.47;;;25.42;47.51
35878;BME280;21982;49.804;24.072;2023-07-24T06:07:55;96832.34;;;26.58;45.24
35878;BME280;21982;49.804;24.072;2023-07-24T06:13:02;96706.44;;;26.41;44.01
35878;BME280;21982;49.804;24.072;2023-07-24T06:15:28;96856.94;;;27.30;44.17
35878;BME280;21982;49.804;24.072;2023-07-24T06:17:54;96689.56;;;25.75;44.01
35878;BME280;21982;49.804;24.072;2023-07-24T06:20:19;96826.50;;;26.51;45.19
35878;BME280;21982;49.804;24.072;2023-07-24T06:22:44;96860.19;;;26.78;45.01
35878;BME280;21982;49.804;24.072;2023-07-24T06:25:10;96808.47;;;26.69;44.45
35878;BME280;21982;49.804;24.072;2023-07-24T06:27:35;96764.91;;;27.01;44.03
35878;BME280;21982;49.804;24.072;2023-07-24T06:30:01;96817.47;;;28.00;42.84
35878;BME280;21982;49.804;24.072;2023-07-24T06:32:26;96828.31;;;28.53;41.85
35878;BME280;21982;49.804;24.072;2023-07-24T06:34:52;96867.63;;;29.18;40.72
35878;BME280;21982;49.804;24.072;2023-07-24T06:37:17;96818.97;;;28.85;40.99
35878;BME280;21982;49.804;24.072;2023-07-24T06:39:42;96798.88;;;28.64;41.07
35878;BME280;21982;49.804;24.072;2023-07-24T06:42:08;96861.28;;;28.83;41.15
35878;BME280;21982;49.804;24.072;2023-07-24T06:44:34;96826.63;;;28.75;40.50
35878;BME280;21982;49.804;24.072;2023-07-24T06:47:00;96828.16;;;28.58;40.72
35878;BME280;21982;49.804;24.072;2023-07-24T06:49:25;96837.88;;;28.42;41.45
35878;BME280;21982;49.804;24.072;2023-07-24T06:51:50;96780.06;;;27.83;41.16
35878;BME280;21982;49.804;24.072;2023-07-24T06:54:16;96570.34;;;26.20;41.86
35878;BME280;21982;49.804;24.072;2023-07-24T06:56:41;96759.56;;;27.32;41.88
35878;BME280;21982;49.804;24.072;2023-07-24T06:59:07;96845.88;;;27.63;42.46
35878;BME280;21982;49.804;24.072;2023-07-24T07:01:33;96863.63;;;27.60;42.52
35878;BME280;21982;49.804;24.072;2023-07-24T07:04:00;96560.78;;;25.59;42.87
35878;BME280;21982;49.804;24.072;2023-07-24T07:06:27;96860.41;;;27.45;42.83
35878;BME280;21982;49.804;24.072;2023-07-24T07:08:53;96845.56;;;27.28;43.55
35878;BME280;21982;49.804;24.072;2023-07-24T07:11:19;96768.72;;;26.87;43.33
35878;BME280;21982;49.804;24.072;2023-07-24T07:13:45;96858.78;;;27.44;43.49
35878;BME280;21982;49.804;24.072;2023-07-24T07:16:10;96852.25;;;27.58;43.26
35878;BME280;21982;49.804;24.072;2023-07-24T07:18:35;96798.16;;;27.43;43.17
35878;BME280;21982;49.804;24.072;2023-07-24T07:21:01;96832.00;;;27.95;42.86
35878;BME280;21982;49.804;24.072;2023-07-24T07:23:26;96794.25;;;27.72;42.91
35878;BME280;21982;49.804;24.072;2023-07-24T07:25:52;96855.13;;;28.29;42.42
35878;BME280;21982;49.804;24.072;2023-07-24T07:28:19;96844.38;;;28.63;42.56
35878;BME280;21982;49.804;24.072;2023-07-24T07:30:45;96835.94;;;28.74;42.27
35878;BME280;21982;49.804;24.072;2023-07-24T07:33:10;96783.75;;;28.18;42.50
35878;BME280;21982;49.804;24.072;2023-07-24T07:35:36;96844.50;;;28.58;42.50
35878;BME280;21982;49.804;24.072;2023-07-24T07:38:02;96844.50;;;28.58;42.44
35878;BME280;21982;49.804;24.072;2023-07-24T07:40:28;96796.78;;;28.61;42.72
35878;BME280;21982;49.804;24.072;2023-07-24T07:42:56;96850.47;;;29.17;42.08
35878;BME280;21982;49.804;24.072;2023-07-24T07:45:22;96851.44;;;29.21;42.33
35878;BME280;21982;49.804;24.072;2023-07-24T07:47:48;96852.25;;;29.39;41.81
35878;BME280;21982;49.804;24.072;2023-07-24T07:50:13;96825.75;;;29.22;42.00
35878;BME280;21982;49.804;24.072;2023-07-24T07:52:39;96826.41;;;29.11;42.45
35878;BME280;21982;49.804;24.072;2023-07-24T07:55:05;96833.16;;;29.30;42.22
35878;BME280;21982;49.804;24.072;2023-07-24T07:57:38;96822.88;;;29.88;41.86
35878;BME280;21982;49.804;24.072;2023-07-24T08:00:08;96830.31;;;30.43;41.31
35878;BME280;21982;49.804;24.072;2023-07-24T08:02:33;96778.91;;;30.36;40.96
35878;BME280;21982;49.804;24.072;2023-07-24T08:04:59;96831.75;;;31.16;40.58
35878;BME280;21982;49.804;24.072;2023-07-24T08:07:25;96815.56;;;31.65;40.04
35878;BME280;21982;49.804;24.072;2023-07-24T08:09:51;96728.97;;;31.27;39.67
35878;BME280;21982;49.804;24.072;2023-07-24T08:12:25;96793.59;;;32.07;38.59
35878;BME280;21982;49.804;24.072;2023-07-24T08:14:51;96815.44;;;31.82;38.33
35878;BME280;21982;49.804;24.072;2023-07-24T08:17:16;96669.06;;;30.93;37.51
35878;BME280;21982;49.804;24.072;2023-07-24T08:19:42;96703.31;;;32.10;36.90
35878;BME280;21982;49.804;24.072;2023-07-24T08:22:11;96834.53;;;33.46;34.98
35878;BME280;21982;49.804;24.072;2023-07-24T08:24:36;96745.97;;;33.09;34.94
35878;BME280;21982;49.804;24.072;2023-07-24T08:27:02;96720.56;;;33.24;34.36
35878;BME280;21982;49.804;24.072;2023-07-24T08:29:29;96800.63;;;34.10;33.79
35878;BME280;21982;49.804;24.072;2023-07-24T08:31:55;96832.34;;;34.51;33.40
35878;BME280;21982;49.804;24.072;2023-07-24T08:34:21;96686.00;;;33.79;33.32
35878;BME280;21982;49.804;24.072;2023-07-24T08:37:04;96823.13;;;35.10;33.32
35878;BME280;21982;49.804;24.072;2023-07-24T08:39:30;96828.44;;;35.34;32.82
35878;BME280;21982;49.804;24.072;2023-07-24T08:46:56;96781.13;;;35.86;30.87
35878;BME280;21982;49.804;24.072;2023-07-24T08:49:22;96589.50;;;34.12;31.22
35878;BME280;21982;49.804;24.072;2023-07-24T08:51:48;96754.53;;;34.82;31.67
35878;BME280;21982;49.804;24.072;2023-07-24T08:54:14;96818.31;;;34.87;32.14
35878;BME280;21982;49.804;24.072;2023-07-24T08:56:40;96795.16;;;34.41;31.92
35878;BME280;21982;49.804;24.072;2023-07-24T08:59:07;96718.47;;;33.33;32.24
35878;BME280;21982;49.804;24.072;2023-07-24T09:01:32;96837.97;;;33.71;32.31
35878;BME280;21982;49.804;24.072;2023-07-24T09:03:58;96845.19;;;34.03;32.75
35878;BME280;21982;49.804;24.072;2023-07-24T09:06:26;96816.63;;;34.51;32.30
35878;BME280;21982;49.804;24.072;2023-07-24T09:08:53;96745.91;;;34.68;31.95
35878;BME280;21982;49.804;24.072;2023-07-24T09:11:19;96754.81;;;35.50;30.71
35878;BME280;21982;49.804;24.072;2023-07-24T09:13:44;96729.06;;;35.81;29.86
35878;BME280;21982;49.804;24.072;2023-07-24T09:16:21;96806.09;;;36.39;30.45
35878;BME280;21982;49.804;24.072;2023-07-24T09:18:50;96765.31;;;36.25;29.97
35878;BME280;21982;49.804;24.072;2023-07-24T09:21:27;96744.56;;;35.89;29.79
35878;BME280;21982;49.804;24.072;2023-07-24T09:23:52;96811.06;;;35.88;30.32
35878;BME280;21982;49.804;24.072;2023-07-24T09:26:17;96800.25;;;35.99;30.50
35878;BME280;21982;49.804;24.072;2023-07-24T09:28:51;96797.22;;;36.49;29.63
35878;BME280;21982;49.804;24.072;2023-07-24T09:31:18;96789.75;;;36.27;28.94
35878;BME280;21982;49.804;24.072;2023-07-24T09:33:44;96734.41;;;35.93;28.79
35878;BME280;21982;49.804;24.072;2023-07-24T09:36:10;96790.94;;;36.26;29.19
35878;BME280;21982;49.804;24.072;2023-07-24T09:38:39;96771.00;;;36.59;28.94
35878;BME280;21982;49.804;24.072;2023-07-24T09:41:05;96691.78;;;36.59;28.44
35878;BME280;21982;49.804;24.072;2023-07-24T09:43:32;96766.50;;;37.27;28.11
35878;BME280;21982;49.804;24.072;2023-07-24T09:45:58;96775.25;;;37.32;28.00
35878;BME280;21982;49.804;24.072;2023-07-24T09:48:26;96736.72;;;36.86;28.00
35878;BME280;21982;49.804;24.072;2023-07-24T09:50:59;96773.50;;;37.20;27.80
35878;BME280;21982;49.804;24.072;2023-07-24T09:53:39;96758.22;;;37.00;28.25
35878;BME280;21982;49.804;24.072;2023-07-24T09:56:06;96765.00;;;36.80;28.10
35878;BME280;21982;49.804;24.072;2023-07-24T09:58:37;96777.53;;;36.74;27.90
35878;BME280;21982;49.804;24.072;2023-07-24T10:01:05;96783.56;;;36.56;28.20
35878;BME280;21982;49.804;24.072;2023-07-24T10:03:59;96782.00;;;36.33;28.79
35878;BME280;21982;49.804;24.072;2023-07-24T10:06:29;96764.91;;;36.50;28.93
35878;BME280;21982;49.804;24.072;2023-07-24T10:08:55;96745.38;;;36.58;28.53
35878;BME280;21982;49.804;24.072;2023-07-24T10:11:21;96763.88;;;36.58;28.64
35878;BME280;21982;49.804;24.072;2023-07-24T10:13:48;96765.22;;;36.68;28.24
35878;BME280;21982;49.804;24.072;2023-07-24T10:16:14;96707.97;;;36.61;28.09
35878;BME280;21982;49.804;24.072;2023-07-24T10:18:46;96745.31;;;37.08;28.01
35878;BME280;21982;49.804;24.072;2023-07-24T10:21:12;96734.66;;;36.80;28.03
35878;BME280;21982;49.804;24.072;2023-07-24T10:23:42;96741.34;;;37.05;28.44
35878;BME280;21982;49.804;24.072;2023-07-24T10:26:08;96712.09;;;37.01;28.16
35878;BME280;21982;49.804;24.072;2023-07-24T10:28:36;96716.69;;;37.53;28.09
35878;BME280;21982;49.804;24.072;2023-07-24T10:31:21;96758.41;;;37.74;28.09
35878;BME280;21982;49.804;24.072;2023-07-24T10:33:48;96716.41;;;37.28;27.78
35878;BME280;21982;49.804;24.072;2023-07-24T10:36:17;96756.38;;;37.38;27.38
35878;BME280;21982;49.804;24.072;2023-07-24T10:38:44;96725.69;;;36.60;27.96
35878;BME280;21982;49.804;24.072;2023-07-24T10:41:11;96741.28;;;37.02;27.81
35878;BME280;21982;49.804;24.072;2023-07-24T10:43:46;96736.22;;;36.28;28.63
35878;BME280;21982;49.804;24.072;2023-07-24T10:46:13;96720.28;;;34.79;30.11
35878;BME280;21982;49.804;24.072;2023-07-24T10:48:47;96729.28;;;35.15;30.33
35878;BME280;21982;49.804;24.072;2023-07-24T10:51:13;96723.94;;;35.60;30.30
35878;BME280;21982;49.804;24.072;2023-07-24T10:53:49;96717.03;;;36.35;28.72
35878;BME280;21982;49.804;24.072;2023-07-24T10:56:16;96699.84;;;36.45;28.67
35878;BME280;21982;49.804;24.072;2023-07-24T10:58:42;96673.72;;;36.36;28.64
35878;BME280;21982;49.804;24.072;2023-07-24T11:01:08;96712.06;;;36.71;28.25
35878;BME280;21982;49.804;24.072;2023-07-24T11:03:41;96715.41;;;37.13;28.49
35878;BME280;21982;49.804;24.072;2023-07-24T11:06:20;96723.53;;;37.29;28.14
35878;BME280;21982;49.804;24.072;2023-07-24T11:08:56;96721.84;;;36.19;29.53
35878;BME280;21982;49.804;24.072;2023-07-24T11:11:29;96687.41;;;34.86;30.88
35878;BME280;21982;49.804;24.072;2023-07-24T11:13:55;96609.22;;;34.33;30.79
35878;BME280;21982;49.804;24.072;2023-07-24T11:16:20;96655.25;;;35.90;29.74
35878;BME280;21982;49.804;24.072;2023-07-24T11:18:50;96721.41;;;36.89;29.38
35878;BME280;21982;49.804;24.072;2023-07-24T11:21:17;96695.44;;;36.94;29.13
35878;BME280;21982;49.804;24.072;2023-07-24T11:23:55;96718.69;;;37.22;28.67
35878;BME280;21982;49.804;24.072;2023-07-24T11:26:25;96674.09;;;36.90;28.70
35878;BME280;21982;49.804;24.072;2023-07-24T11:28:52;96700.06;;;36.59;29.66
35878;BME280;21982;49.804;24.072;2023-07-24T11:31:18;96698.50;;;35.48;30.28
35878;BME280;21982;49.804;24.072;2023-07-24T11:33:46;96628.59;;;33.89;32.00
35878;BME280;21982;49.804;24.072;2023-07-24T11:36:12;96686.53;;;33.41;33.21
35878;BME280;21982;49.804;24.072;2023-07-24T11:38:37;96687.88;;;32.91;33.49
35878;BME280;21982;49.804;24.072;2023-07-24T11:41:04;96651.66;;;33.13;33.28
35878;BME280;21982;49.804;24.072;2023-07-24T11:43:30;96669.84;;;34.56;32.00
35878;BME280;21982;49.804;24.072;2023-07-24T11:45:55;96648.00;;;35.59;30.80
35878;BME280;21982;49.804;24.072;2023-07-24T11:48:23;96528.91;;;35.70;29.49
35878;BME280;21982;49.804;24.072;2023-07-24T11:50:56;96648.97;;;36.69;28.98
35878;BME280;21982;49.804;24.072;2023-07-24T11:53:31;96637.94;;;36.99;29.17
35878;BME280;21982;49.804;24.072;2023-07-24T11:55:58;96673.56;;;37.08;29.16
35878;BME280;21982;49.804;24.072;2023-07-24T11:58:27;96663.91;;;37.24;28.80
35878;BME280;21982;49.804;24.072;2023-07-24T12:00:53;96670.75;;;37.04;28.89
35878;BME280;21982;49.804;24.072;2023-07-24T12:03:24;96696.34;;;37.01;28.29
35878;BME280;21982;49.804;24.072;2023-07-24T12:05:49;96687.22;;;36.71;28.82
35878;BME280;21982;49.804;24.072;2023-07-24T12:08:16;96631.13;;;36.10;28.92
35878;BME280;21982;49.804;24.072;2023-07-24T12:10:43;96568.25;;;35.67;29.04
35878;BME280;21982;49.804;24.072;2023-07-24T12:13:09;96685.84;;;36.57;29.68
35878;BME280;21982;49.804;24.072;2023-07-24T12:15:35;96643.69;;;36.57;29.56
35878;BME280;21982;49.804;24.072;2023-07-24T12:18:01;96537.66;;;35.75;29.02
35878;BME280;21982;49.804;24.072;2023-07-24T12:20:27;96623.94;;;36.55;28.92
35878;BME280;21982;49.804;24.072;2023-07-24T12:22:52;96561.44;;;35.38;29.67
35878;BME280;21982;49.804;24.072;2023-07-24T12:25:19;96624.19;;;35.93;29.71
35878;BME280;21982;49.804;24.072;2023-07-24T12:27:45;96505.69;;;35.67;29.60
35878;BME280;21982;49.804;24.072;2023-07-24T12:30:28;96653.69;;;36.69;29.52
35878;BME280;21982;49.804;24.072;2023-07-24T12:32:54;96576.50;;;35.89;29.24
35878;BME280;21982;49.804;24.072;2023-07-24T12:35:19;96645.41;;;35.09;30.61
35878;BME280;21982;49.804;24.072;2023-07-24T12:37:45;96622.31;;;33.89;31.87
35878;BME280;21982;49.804;24.072;2023-07-24T12:40:11;96660.03;;;33.76;32.41
35878;BME280;21982;49.804;24.072;2023-07-24T12:42:36;96638.50;;;34.10;32.18
35878;BME280;21982;49.804;24.072;2023-07-24T12:45:02;96621.81;;;34.34;31.82
35878;BME280;21982;49.804;24.072;2023-07-24T12:47:29;96530.53;;;33.58;31.46
35878;BME280;21982;49.804;24.072;2023-07-24T12:49:54;96609.19;;;33.51;32.49
35878;BME280;21982;49.804;24.072;2023-07-24T12:52:21;96659.91;;;33.13;33.23
35878;BME280;21982;49.804;24.072;2023-07-24T12:54:46;96667.31;;;32.60;34.22
35878;BME280;21982;49.804;24.072;2023-07-24T12:57:12;96660.06;;;32.16;34.88
35878;BME280;21982;49.804;24.072;2023-07-24T12:59:37;96656.41;;;31.99;35.13
35878;BME280;21982;49.804;24.072;2023-07-24T13:02:03;96684.22;;;31.77;35.30